createdAt,value
2024-05-09T04:52:37.640Z,10.30
2024-05-09T04:55:05.171Z,10.10
2024-05-09T04:57:34.682Z,10.40
2024-05-09T05:07:37.090Z,11.00
2024-05-09T05:12:52.070Z,11.60
2024-05-09T05:15:21.634Z,11.40
2024-05-09T05:17:48.720Z,11.10
2024-05-09T05:20:27.308Z,12.00
2024-05-09T05:23:02.550Z,11.80
2024-05-09T05:25:32.194Z,12.00
2024-05-09T05:27:59.175Z,12.10
2024-05-09T05:30:33.012Z,12.20
2024-05-09T05:33:02.075Z,12.30
2024-05-09T05:35:31.942Z,12.40
2024-05-09T05:37:59.012Z,12.60
2024-05-09T05:40:36.391Z,12.80
2024-05-09T05:43:05.506Z,12.70
2024-05-09T05:45:35.132Z,12.50
2024-05-09T05:48:04.527Z,12.30
2024-05-09T05:50:36.926Z,12.20
2024-05-09T05:53:06.383Z,12.10
2024-05-09T05:55:38.879Z,12.10
2024-05-09T05:58:08.378Z,12.10
2024-05-09T06:00:39.937Z,11.80
2024-05-09T06:03:09.279Z,12.20
2024-05-09T06:05:40.941Z,12.20
2024-05-09T06:08:08.372Z,12.30
2024-05-09T06:10:41.658Z,12.40
2024-05-09T06:13:11.093Z,12.30
2024-05-09T06:15:41.656Z,12.40
2024-05-09T06:18:10.157Z,12.40
2024-05-09T06:20:41.865Z,12.50
2024-05-09T06:23:10.566Z,12.60
2024-05-09T06:25:43.972Z,12.70
2024-05-09T06:28:11.190Z,12.80
2024-05-09T06:30:42.572Z,13.20
2024-05-09T06:33:13.372Z,13.50
2024-05-09T06:35:45.282Z,13.20
2024-05-09T06:38:12.723Z,12.80
2024-05-09T06:40:45.164Z,13.70
2024-05-09T06:43:12.735Z,13.20
2024-05-09T06:45:42.342Z,13.30
2024-05-09T06:48:10.388Z,13.40
2024-05-09T06:50:40.625Z,13.30
2024-05-09T06:53:08.318Z,13.50
2024-05-09T06:55:38.922Z,13.50
2024-05-09T06:58:09.144Z,13.60
2024-05-09T07:00:41.197Z,13.70
2024-05-09T07:03:09.894Z,13.70
2024-05-09T07:05:39.902Z,13.80
2024-05-09T07:08:07.955Z,13.80
2024-05-09T07:10:38.511Z,14.00
2024-05-09T07:13:11.464Z,14.10
2024-05-09T07:15:41.400Z,14.20
2024-05-09T07:18:10.612Z,14.60
2024-05-09T07:20:41.011Z,14.40
2024-05-09T07:23:08.940Z,14.50
2024-05-09T07:25:38.787Z,14.60
2024-05-09T07:28:09.817Z,14.60
2024-05-09T07:30:41.976Z,14.80
2024-05-09T07:33:09.421Z,14.80
2024-05-09T07:35:39.143Z,15.20
2024-05-09T07:38:06.314Z,15.20
2024-05-09T07:40:37.114Z,15.20
2024-05-09T07:43:04.770Z,15.00
2024-05-09T07:53:37.131Z,15.30
2024-05-09T08:00:58.601Z,15.50
2024-05-09T08:03:28.431Z,15.60
2024-05-09T08:10:55.578Z,15.90
2024-05-09T08:13:22.900Z,16.00
2024-05-09T08:15:52.934Z,16.00
2024-05-09T08:18:20.340Z,16.20
2024-05-09T08:20:53.921Z,16.50
2024-05-09T08:23:20.960Z,16.40
2024-05-09T08:25:50.515Z,17.00
2024-05-09T08:28:17.681Z,16.50
2024-05-09T08:30:47.655Z,16.70
2024-05-09T08:33:15.128Z,16.80
2024-05-09T08:35:45.005Z,16.90
2024-05-09T08:38:14.633Z,17.00
2024-05-09T08:40:44.612Z,17.10
2024-05-09T08:43:13.235Z,17.20
2024-05-09T08:45:44.869Z,17.30
2024-05-09T08:48:15.173Z,17.50
2024-05-09T08:50:46.210Z,17.50
2024-05-09T08:53:15.921Z,17.60
2024-05-09T08:55:46.497Z,17.60
2024-05-09T08:58:16.813Z,17.70
2024-05-09T09:03:17.588Z,17.90
2024-05-09T09:05:55.335Z,18.10
2024-05-09T09:08:28.872Z,18.20
2024-05-09T09:10:58.499Z,18.20
2024-05-09T09:13:28.533Z,18.30
2024-05-09T09:15:58.702Z,18.30
2024-05-09T09:18:30.075Z,18.50
2024-05-09T09:20:57.376Z,18.60
2024-05-09T09:23:30.795Z,18.80
2024-05-09T09:25:59.520Z,18.90
2024-05-09T09:28:29.504Z,18.90
2024-05-09T09:31:01.740Z,19.10
2024-05-09T09:33:32.079Z,19.30
2024-05-09T09:36:00.368Z,20.30
2024-05-09T09:38:34.074Z,19.70
2024-05-09T09:41:05.683Z,19.70
2024-05-09T09:43:36.136Z,19.80
2024-05-09T09:46:06.325Z,19.70
2024-05-09T09:48:38.746Z,19.70
2024-05-09T09:51:07.814Z,19.70
2024-05-09T09:53:40.847Z,19.90
2024-05-09T09:56:10.093Z,20.10
2024-05-09T09:58:41.387Z,20.00
2024-05-09T10:01:08.620Z,20.00
2024-05-09T10:03:38.714Z,20.00
2024-05-09T10:06:06.988Z,20.00
2024-05-09T10:08:40.198Z,20.00
2024-05-09T10:11:07.399Z,19.40
2024-05-09T10:13:37.373Z,19.50
2024-05-09T10:16:09.551Z,19.60
2024-05-09T10:18:40.176Z,19.90
2024-05-09T10:21:17.045Z,20.10
2024-05-09T10:24:00.644Z,20.00
2024-05-09T10:26:32.575Z,20.10
2024-05-09T10:29:03.362Z,20.10
2024-05-09T10:31:30.661Z,20.10
2024-05-09T10:34:03.001Z,20.10
2024-05-09T10:36:30.574Z,20.20
2024-05-09T10:39:02.893Z,20.30
2024-05-09T10:41:30.093Z,20.50
2024-05-09T10:43:59.656Z,20.80
2024-05-09T10:46:26.773Z,21.00
2024-05-09T10:48:56.562Z,21.00
2024-05-09T10:51:24.900Z,20.80
2024-05-09T10:53:56.660Z,20.80
2024-05-09T10:56:26.513Z,20.60
2024-05-09T10:58:57.234Z,20.40
2024-05-09T11:01:24.407Z,20.40
2024-05-09T11:03:55.143Z,20.50
2024-05-09T11:06:23.278Z,20.70
2024-05-09T11:08:53.432Z,20.90
2024-05-09T11:11:20.678Z,21.20
2024-05-09T11:13:52.837Z,21.30
2024-05-09T11:16:20.785Z,22.00
2024-05-09T11:18:58.835Z,23.30
2024-05-09T11:21:26.698Z,24.70
2024-05-09T11:23:56.425Z,26.20
2024-05-09T11:26:25.285Z,27.30
2024-05-09T11:28:57.703Z,28.00
2024-05-09T11:31:25.041Z,28.90
2024-05-09T11:33:57.258Z,28.60
2024-05-09T11:36:24.377Z,28.70
2024-05-09T11:38:54.122Z,29.10
2024-05-09T11:41:21.174Z,28.20
2024-05-09T11:43:50.688Z,28.30
2024-05-09T11:46:20.272Z,27.90
2024-05-09T11:48:49.935Z,28.00
2024-05-09T11:51:17.042Z,28.20
2024-05-09T11:53:46.575Z,28.40
2024-05-09T11:56:15.395Z,28.60
2024-05-09T11:58:45.067Z,28.00
2024-05-09T12:01:12.134Z,28.20
2024-05-09T12:03:44.508Z,30.90
2024-05-09T12:06:11.719Z,32.50
2024-05-09T12:08:41.579Z,33.00
2024-05-09T12:11:08.725Z,33.10
2024-05-09T12:13:38.346Z,33.60
2024-05-09T12:16:06.159Z,33.40
2024-05-09T12:18:36.413Z,33.50
2024-05-09T12:21:06.350Z,34.40
2024-05-09T12:23:35.904Z,34.50
2024-05-09T12:26:03.068Z,34.20
2024-05-09T12:28:32.818Z,33.00
2024-05-09T12:30:59.856Z,33.20
2024-05-09T12:33:29.621Z,32.70
2024-05-09T12:35:56.835Z,32.90
2024-05-09T12:38:28.990Z,34.20
2024-05-09T12:40:56.181Z,34.20
2024-05-09T12:43:26.072Z,34.80
2024-05-09T12:45:53.239Z,35.10
2024-05-09T12:48:23.019Z,35.70
2024-05-09T12:50:51.561Z,36.50
2024-05-09T12:53:21.230Z,36.70
2024-05-09T12:55:56.855Z,35.70
2024-05-09T12:58:30.157Z,36.10
2024-05-09T13:00:57.313Z,35.30
2024-05-09T13:03:27.004Z,34.50
2024-05-09T13:05:54.521Z,33.50
2024-05-09T13:08:24.297Z,32.70
2024-05-09T13:10:53.977Z,32.30
2024-05-09T13:13:23.769Z,32.70
2024-05-09T13:15:50.899Z,33.80
2024-05-09T13:18:20.559Z,34.50
2024-05-09T13:20:47.628Z,34.60
2024-05-09T13:23:17.165Z,34.30
2024-05-09T13:25:44.226Z,33.20
2024-05-09T13:28:16.658Z,32.60
2024-05-09T13:30:44.027Z,32.90
2024-05-09T13:33:14.562Z,33.80
2024-05-09T13:35:46.653Z,34.50
2024-05-09T13:38:19.836Z,34.00
2024-05-09T13:40:47.779Z,33.80
2024-05-09T13:43:21.793Z,33.10
2024-05-09T13:45:49.551Z,31.30
2024-05-09T13:48:19.741Z,30.80
2024-05-09T13:50:47.220Z,31.20
2024-05-09T13:53:16.898Z,30.10
2024-05-09T13:55:44.085Z,30.00
2024-05-09T13:58:13.733Z,30.90
2024-05-09T14:00:48.009Z,32.00
2024-05-09T14:03:20.671Z,32.10
2024-05-09T14:05:49.870Z,31.30
2024-05-09T14:08:22.232Z,29.50
2024-05-09T14:10:50.137Z,28.30
2024-05-09T14:13:20.335Z,28.00
2024-05-09T14:15:50.272Z,26.80
2024-05-09T14:18:20.539Z,25.60
2024-05-09T14:20:47.632Z,25.20
2024-05-09T14:23:17.289Z,24.30
2024-05-09T14:25:46.052Z,24.30
2024-05-09T14:28:17.053Z,24.00
2024-05-09T14:30:44.171Z,24.30
2024-05-09T14:33:23.500Z,24.00
2024-05-09T14:35:50.738Z,24.00
2024-05-09T14:38:20.272Z,24.00
2024-05-09T14:40:47.369Z,24.10
2024-05-09T14:43:17.537Z,24.00
2024-05-09T14:45:45.290Z,23.90
2024-05-09T14:48:19.848Z,23.70
2024-05-09T14:50:47.255Z,23.50
2024-05-09T14:53:17.319Z,23.50
2024-05-09T14:55:44.556Z,23.40
2024-05-09T14:58:14.667Z,23.20
2024-05-09T15:00:46.649Z,23.00
2024-05-09T15:03:23.109Z,23.00
2024-05-09T15:05:51.454Z,22.90
2024-05-09T15:08:21.795Z,22.80
2024-05-09T15:10:50.055Z,22.80
2024-05-09T15:13:20.480Z,23.10
2024-05-09T15:15:48.190Z,22.90
2024-05-09T15:18:18.287Z,23.00
2024-05-09T15:20:48.563Z,23.20
2024-05-09T15:23:18.388Z,23.30
2024-05-09T15:25:45.422Z,23.10
2024-05-09T15:28:15.258Z,23.10
2024-05-09T15:30:46.130Z,23.10
2024-05-09T15:33:16.717Z,23.00
2024-05-09T15:35:46.218Z,22.90
2024-05-09T15:38:18.900Z,22.80
2024-05-09T15:40:46.322Z,22.70
2024-05-09T15:43:16.098Z,22.70
2024-05-09T15:45:43.145Z,22.80
2024-05-09T15:48:14.308Z,22.80
2024-05-09T15:50:42.694Z,22.80
2024-05-09T15:53:13.841Z,22.80
2024-05-09T15:55:43.767Z,22.80
2024-05-09T15:58:14.150Z,22.70
2024-05-09T16:00:44.197Z,22.60
2024-05-09T16:03:16.056Z,22.60
2024-05-09T16:05:44.601Z,22.60
2024-05-09T16:08:15.352Z,22.50
2024-05-09T16:10:47.339Z,22.50
2024-05-09T16:13:17.876Z,22.40
2024-05-09T16:15:45.632Z,22.50
2024-05-09T16:18:15.629Z,22.40
2024-05-09T16:20:44.837Z,22.50
2024-05-09T16:23:16.061Z,22.50
2024-05-09T16:25:47.943Z,22.60
2024-05-09T16:28:18.271Z,22.70
2024-05-09T16:30:45.332Z,23.00
2024-05-09T16:33:15.040Z,22.70
2024-05-09T16:35:42.075Z,22.70
2024-05-09T16:38:11.637Z,22.50
2024-05-09T16:40:40.874Z,22.40
2024-05-09T16:43:14.280Z,22.30
2024-05-09T16:45:43.785Z,22.40
2024-05-09T16:48:14.150Z,22.60
2024-05-09T16:50:41.449Z,22.60
2024-05-09T16:53:11.172Z,22.50
2024-05-09T16:55:38.429Z,22.60
2024-05-09T16:58:09.260Z,22.70
2024-05-09T17:00:42.628Z,22.90
2024-05-09T17:03:16.683Z,23.10
2024-05-09T17:05:45.961Z,23.30
2024-05-09T17:08:18.108Z,23.40
2024-05-09T17:10:45.763Z,23.50
2024-05-09T17:13:15.514Z,23.60
2024-05-09T17:15:48.124Z,23.60
2024-05-09T17:18:18.734Z,23.60
2024-05-09T17:20:45.949Z,23.70
2024-05-09T17:23:15.843Z,23.80
2024-05-09T17:25:43.146Z,23.90
2024-05-09T17:28:13.250Z,23.90
2024-05-09T17:30:42.030Z,23.90
2024-05-09T17:33:15.113Z,23.80
2024-05-09T17:35:42.325Z,23.80
2024-05-09T17:38:12.015Z,23.90
2024-05-09T17:40:39.677Z,23.90
2024-05-09T17:43:10.774Z,23.80
2024-05-09T17:45:39.433Z,23.70
2024-05-09T17:48:12.342Z,23.60
2024-05-09T17:50:42.414Z,23.60
2024-05-09T17:53:12.528Z,23.60
2024-05-09T17:55:40.219Z,23.60
2024-05-09T17:58:10.455Z,23.50
2024-05-09T18:00:40.652Z,23.30
2024-05-09T18:03:13.969Z,23.20
2024-05-09T18:05:44.871Z,22.90
2024-05-09T18:08:22.694Z,22.50
2024-05-09T18:10:51.457Z,22.20
2024-05-09T18:13:21.926Z,22.00
2024-05-09T18:15:49.143Z,21.80
2024-05-09T18:18:18.939Z,21.70
2024-05-09T18:20:48.691Z,21.50
2024-05-09T18:23:19.580Z,21.30
2024-05-09T18:25:47.276Z,21.00
2024-05-09T18:28:32.657Z,20.80
2024-05-09T18:30:59.641Z,20.60
2024-05-09T18:33:29.434Z,20.40
2024-05-09T18:35:59.167Z,20.20
2024-05-09T18:38:28.778Z,20.00
2024-05-09T18:40:55.861Z,19.80
2024-05-09T18:43:31.146Z,19.60
2024-05-09T18:46:03.647Z,19.40
2024-05-09T18:48:33.434Z,19.20
2024-05-09T18:51:05.075Z,19.00
2024-05-09T18:53:34.738Z,18.90
2024-05-09T18:56:01.713Z,18.80
2024-05-09T18:58:31.257Z,18.60
2024-05-09T19:01:00.833Z,18.50
2024-05-09T19:03:31.415Z,18.40
2024-05-09T19:06:02.406Z,18.30
2024-05-09T19:08:32.047Z,17.70
2024-05-09T19:10:59.260Z,18.10
2024-05-09T19:13:28.902Z,18.10
2024-05-09T19:15:56.846Z,18.00
2024-05-09T19:18:26.574Z,18.00
2024-05-09T19:20:53.565Z,17.90
2024-05-09T19:23:25.822Z,17.90
2024-05-09T19:25:52.798Z,17.80
2024-05-09T19:28:22.460Z,17.80
2024-05-09T19:30:49.601Z,17.70
2024-05-09T19:33:19.227Z,17.60
2024-05-09T19:35:46.310Z,17.70
2024-05-09T19:38:16.042Z,17.90
2024-05-09T19:40:45.905Z,17.60
2024-05-09T19:43:15.799Z,17.30
2024-05-09T19:45:43.548Z,17.50
2024-05-09T19:48:13.602Z,17.40
2024-05-09T19:50:43.800Z,17.40
2024-05-09T19:53:14.661Z,17.30
2024-05-09T19:55:42.644Z,17.10
2024-05-09T19:58:15.739Z,17.00
2024-05-09T20:00:44.172Z,16.90
2024-05-09T20:03:15.655Z,16.90
2024-05-09T20:05:45.339Z,16.70
2024-05-09T20:08:15.912Z,16.60
2024-05-09T20:10:43.295Z,16.40
2024-05-09T20:13:16.534Z,16.30
2024-05-09T20:15:43.852Z,16.30
2024-05-09T20:18:13.663Z,16.20
2024-05-09T20:20:43.062Z,16.00
2024-05-09T20:23:14.921Z,16.00
2024-05-09T20:25:42.260Z,15.90
2024-05-09T20:28:12.132Z,15.80
2024-05-09T20:30:42.217Z,15.70
2024-05-09T20:33:12.447Z,15.80
2024-05-09T20:35:39.586Z,15.70
2024-05-09T20:38:09.163Z,15.60
